createdAt,value
2019-05-02T00:00:44.227Z,97515.36
2019-05-02T00:03:13.627Z,97515.50
2019-05-02T00:06:24.521Z,97511.39
2019-05-02T00:11:33.578Z,97502.23
2019-05-02T00:14:13.926Z,97507.18
2019-05-02T00:19:25.119Z,97500.52
2019-05-02T00:21:54.598Z,97505.41
2019-05-02T00:24:23.939Z,97499.97
2019-05-02T00:26:56.218Z,97501.97
2019-05-02T00:29:29.687Z,97495.50
2019-05-02T00:32:01.102Z,97497.22
2019-05-02T00:34:49.524Z,97499.04
2019-05-02T00:37:24.387Z,97494.38
2019-05-02T00:40:09.418Z,97490.78
2019-05-02T00:42:38.765Z,97482.40
2019-05-02T00:45:08.157Z,97484.53
2019-05-02T00:47:56.870Z,97480.25
2019-05-02T00:53:22.109Z,97478.34
2019-05-02T00:55:51.447Z,97475.44
2019-05-02T00:58:20.797Z,97475.63
2019-05-02T01:01:09.237Z,97466.62
2019-05-02T01:07:14.900Z,97467.19
2019-05-02T01:12:32.612Z,97465.14
2019-05-02T01:15:03.438Z,97465.48
2019-05-02T01:17:38.532Z,97461.34
2019-05-02T01:23:42.231Z,97454.58
2019-05-02T01:26:11.568Z,97455.37
2019-05-02T01:29:00.026Z,97459.34
2019-05-02T01:31:49.861Z,97447.07
2019-05-02T01:34:43.824Z,97451.42
2019-05-02T01:37:32.274Z,97451.98
2019-05-02T01:40:01.616Z,97450.79
2019-05-02T01:42:39.589Z,97451.75
2019-05-02T01:45:21.087Z,97449.23
2019-05-02T01:47:50.352Z,97453.16
2019-05-02T01:50:38.797Z,97453.16
2019-05-02T01:53:08.134Z,97451.52
2019-05-02T01:58:20.752Z,97447.09
2019-05-02T02:01:07.976Z,97450.41
2019-05-02T02:03:56.412Z,97443.70
2019-05-02T02:06:25.748Z,97446.28
2019-05-02T02:08:55.153Z,97451.14
2019-05-02T02:11:28.435Z,97451.59
2019-05-02T02:14:18.227Z,97447.27
2019-05-02T02:16:44.521Z,97450.80
2019-05-02T02:22:13.418Z,97446.61
2019-05-02T02:27:38.227Z,97446.94
2019-05-02T02:30:47.495Z,97446.10
2019-05-02T02:33:16.886Z,97447.32
2019-05-02T02:35:50.404Z,97445.80
2019-05-02T02:38:36.351Z,97448.79
2019-05-02T02:41:06.373Z,97443.89
2019-05-02T02:46:45.415Z,97442.25
2019-05-02T02:49:21.409Z,97440.16
2019-05-02T02:52:06.844Z,97438.48
2019-05-02T02:54:43.390Z,97442.83
2019-05-02T02:57:27.965Z,97435.87
2019-05-02T03:00:06.732Z,97436.27
2019-05-02T03:02:35.307Z,97436.70
2019-05-02T03:05:27.754Z,97440.25
2019-05-02T03:08:15.783Z,97440.16
2019-05-02T03:10:46.654Z,97438.13
2019-05-02T03:14:06.073Z,97434.01
2019-05-02T03:19:27.130Z,97423.44
2019-05-02T03:22:00.844Z,97429.58
2019-05-02T03:30:50.638Z,97425.14
2019-05-02T03:36:53.758Z,97434.11
2019-05-02T03:39:23.258Z,97429.89
2019-05-02T03:44:56.028Z,97431.22
2019-05-02T03:50:35.294Z,97427.36
2019-05-02T03:53:09.277Z,97431.67
2019-05-02T03:55:38.621Z,97434.95
2019-05-02T03:58:14.321Z,97428.70
2019-05-02T04:00:48.248Z,97439.06
2019-05-02T04:06:21.385Z,97429.36
2019-05-02T04:09:00.139Z,97434.09
2019-05-02T04:11:38.956Z,97435.38
2019-05-02T04:14:17.437Z,97437.66
2019-05-02T04:16:55.309Z,97435.96
2019-05-02T04:20:09.465Z,97434.36
2019-05-02T04:22:54.096Z,97440.57
2019-05-02T04:25:42.801Z,97446.72
2019-05-02T04:28:14.371Z,97441.64
2019-05-02T04:30:51.310Z,97444.30
2019-05-02T04:33:29.059Z,97445.60
2019-05-02T04:36:13.654Z,97449.88
2019-05-02T04:38:47.686Z,97452.86
2019-05-02T04:41:28.267Z,97453.77
2019-05-02T04:43:57.829Z,97450.38
2019-05-02T04:46:31.434Z,97450.14
2019-05-02T04:49:09.181Z,97444.78
2019-05-02T04:51:50.654Z,97444.94
2019-05-02T04:54:25.830Z,97446.46
2019-05-02T04:56:58.969Z,97450.02
2019-05-02T04:59:39.233Z,97448.63
2019-05-02T05:02:13.609Z,97453.75
2019-05-02T05:04:48.630Z,97447.32
2019-05-02T05:07:40.822Z,97450.80
2019-05-02T05:10:09.516Z,97446.28
2019-05-02T05:12:41.837Z,97450.13
2019-05-02T05:15:38.339Z,97455.33
2019-05-02T05:18:10.613Z,97461.64
2019-05-02T05:20:52.940Z,97461.68
2019-05-02T05:26:12.543Z,97467.19
2019-05-02T05:28:44.413Z,97462.53
2019-05-02T05:31:24.086Z,97458.80
2019-05-02T05:33:58.952Z,97465.60
2019-05-02T05:36:32.687Z,97458.38
2019-05-02T05:39:18.431Z,97467.32
2019-05-02T05:41:52.186Z,97466.01
2019-05-02T05:44:39.881Z,97469.35
2019-05-02T05:47:17.577Z,97472.41
2019-05-02T05:49:52.193Z,97467.55
2019-05-02T05:52:33.075Z,97462.84
2019-05-02T05:55:08.042Z,97474.06
2019-05-02T05:57:38.456Z,97475.12
2019-05-02T06:03:17.760Z,97457.80
2019-05-02T06:06:09.757Z,97462.95
2019-05-02T06:08:42.692Z,97462.20
2019-05-02T06:11:19.987Z,97458.20
2019-05-02T06:13:53.999Z,97455.74
2019-05-02T06:16:23.333Z,97459.69
2019-05-02T06:18:52.667Z,97454.53
2019-05-02T06:21:22.007Z,97453.48
2019-05-02T06:23:51.335Z,97456.55
2019-05-02T06:26:26.023Z,97456.01
2019-05-02T06:28:55.365Z,97460.89
2019-05-02T06:31:24.700Z,97455.44
2019-05-02T06:34:13.121Z,97456.34
2019-05-02T06:36:42.468Z,97452.84
2019-05-02T06:39:11.874Z,97450.41
2019-05-02T06:41:42.848Z,97450.99
2019-05-02T06:47:36.047Z,97453.66
2019-05-02T06:53:18.231Z,97452.14
2019-05-02T06:55:47.563Z,97451.08
2019-05-02T06:58:16.906Z,97449.80
2019-05-02T07:00:56.777Z,97444.64
2019-05-02T07:03:22.547Z,97453.12
2019-05-02T07:05:52.059Z,97439.56
2019-05-02T07:08:21.419Z,97445.49
2019-05-02T07:10:50.737Z,97443.81
2019-05-02T07:13:20.069Z,97446.66
2019-05-02T07:16:10.531Z,97447.83
2019-05-02T07:21:58.507Z,97438.92
2019-05-02T07:24:43.511Z,97444.56
2019-05-02T07:27:12.945Z,97444.56
2019-05-02T07:29:42.267Z,97438.20
2019-05-02T07:35:27.675Z,97438.70
2019-05-02T07:38:09.260Z,97422.19
2019-05-02T07:43:21.361Z,97421.33
2019-05-02T07:46:08.887Z,97424.42
2019-05-02T07:48:54.515Z,97431.86
2019-05-02T07:51:22.651Z,97431.86
2019-05-02T07:54:31.681Z,97413.55
2019-05-02T07:57:02.417Z,97422.51
2019-05-02T08:03:10.991Z,97417.34
2019-05-02T08:05:40.334Z,97417.34
2019-05-02T08:08:15.604Z,97417.69
2019-05-02T08:10:44.943Z,97417.81
2019-05-02T08:13:17.554Z,97412.97
2019-05-02T08:15:52.391Z,97412.97
2019-05-02T08:18:30.283Z,97400.08
2019-05-02T08:21:04.704Z,97408.30
2019-05-02T08:23:34.038Z,97411.70
2019-05-02T08:26:03.369Z,97413.62
2019-05-02T08:28:57.585Z,97418.31
2019-05-02T08:31:30.037Z,97414.18
2019-05-02T08:37:12.603Z,97416.32
2019-05-02T08:39:41.936Z,97406.58
2019-05-02T08:42:32.593Z,97409.27
2019-05-02T08:48:27.336Z,97399.33
2019-05-02T08:50:56.666Z,97399.89
2019-05-02T08:53:26.014Z,97404.73
2019-05-02T08:55:55.343Z,97399.06
2019-05-02T08:58:24.694Z,97399.84
2019-05-02T09:00:54.024Z,97400.91
2019-05-02T09:03:23.357Z,97398.75
2019-05-02T09:06:06.064Z,97393.15
2019-05-02T09:08:35.261Z,97397.56
2019-05-02T09:11:14.207Z,97394.11
2019-05-02T09:14:05.624Z,97392.43
2019-05-02T09:16:34.963Z,97387.56
2019-05-02T09:19:26.456Z,97387.44
2019-05-02T09:21:59.602Z,97388.59
2019-05-02T09:24:28.938Z,97390.43
2019-05-02T09:26:58.268Z,97384.00
2019-05-02T09:29:47.037Z,97377.50
2019-05-02T09:32:17.065Z,97378.60
2019-05-02T09:34:56.725Z,97368.76
2019-05-02T09:37:29.208Z,97363.26
2019-05-02T09:39:58.551Z,97367.23
2019-05-02T09:42:27.880Z,97363.84
2019-05-02T09:44:57.216Z,97367.31
2019-05-02T09:47:33.221Z,97360.91
2019-05-02T09:50:29.440Z,97360.07
2019-05-02T09:52:58.769Z,97348.81
2019-05-02T09:55:28.391Z,97347.95
2019-05-02T09:57:57.651Z,97354.91
2019-05-02T10:03:29.243Z,97340.21
2019-05-02T10:05:58.591Z,97337.30
2019-05-02T10:08:28.065Z,97338.52
2019-05-02T10:13:37.691Z,97323.95
2019-05-02T10:16:07.085Z,97321.29
2019-05-02T10:18:49.064Z,97319.95
2019-05-02T10:21:18.394Z,97322.56
2019-05-02T10:23:53.683Z,97313.41
2019-05-02T10:26:20.150Z,97310.27
2019-05-02T10:28:51.226Z,97307.31
2019-05-02T10:31:21.824Z,97299.52
2019-05-02T10:33:52.932Z,97302.02
2019-05-02T10:36:23.971Z,97298.80
2019-05-02T10:38:58.863Z,97293.83
2019-05-02T10:41:24.515Z,97293.44
2019-05-02T10:43:57.693Z,97297.34
2019-05-02T10:46:27.886Z,97282.45
2019-05-02T10:49:01.858Z,97293.25
2019-05-02T10:51:34.510Z,97286.24
2019-05-02T10:54:05.580Z,97290.52
2019-05-02T10:56:34.922Z,97286.53
2019-05-02T10:59:04.496Z,97278.48
2019-05-02T11:01:35.616Z,97272.87
2019-05-02T11:04:06.727Z,97274.77
2019-05-02T11:06:37.146Z,97271.79
2019-05-02T11:09:12.028Z,97263.66
2019-05-02T11:11:42.519Z,97258.65
2019-05-02T11:14:13.611Z,97267.20
2019-05-02T11:16:44.594Z,97257.58
2019-05-02T11:19:15.564Z,97259.21
2019-05-02T11:21:55.381Z,97254.61
2019-05-02T11:24:16.229Z,97250.06
2019-05-02T11:26:45.575Z,97251.22
2019-05-02T11:29:14.907Z,97248.03
2019-05-02T11:31:44.460Z,97246.28
2019-05-02T11:34:14.275Z,97248.68
2019-05-02T11:36:43.615Z,97239.86
2019-05-02T11:39:19.661Z,97235.70
2019-05-02T11:41:44.123Z,97234.70
2019-05-02T11:44:13.472Z,97237.69
2019-05-02T11:46:46.784Z,97238.28
2019-05-02T11:49:13.843Z,97234.51
2019-05-02T11:51:47.183Z,97230.80
2019-05-02T11:54:14.227Z,97236.25
2019-05-02T11:56:48.887Z,97231.48
2019-05-02T11:59:15.074Z,97222.23
2019-05-02T12:01:56.765Z,97226.08
2019-05-02T12:04:17.141Z,97217.91
2019-05-02T12:06:50.041Z,97218.51
2019-05-02T12:09:18.118Z,97212.06
2019-05-02T12:11:55.033Z,97216.28
2019-05-02T12:14:18.841Z,97207.49
2019-05-02T12:16:48.177Z,97208.13
2019-05-02T12:19:17.514Z,97205.91
2019-05-02T12:21:55.246Z,97204.09
2019-05-02T12:24:25.458Z,97198.29
2019-05-02T12:26:54.799Z,97202.31
2019-05-02T12:29:24.124Z,97194.08
2019-05-02T12:31:56.371Z,97199.87
2019-05-02T12:34:24.608Z,97203.23
2019-05-02T12:36:53.954Z,97193.81
2019-05-02T12:39:23.282Z,97189.78
2019-05-02T12:41:53.606Z,97188.14
2019-05-02T12:44:23.617Z,97186.76
2019-05-02T12:46:52.952Z,97196.53
2019-05-02T12:49:27.547Z,97198.72
2019-05-02T12:51:53.322Z,97193.91
2019-05-02T12:54:22.663Z,97194.33
2019-05-02T12:56:52.865Z,97176.77
2019-05-02T12:59:22.621Z,97189.88
2019-05-02T13:01:52.086Z,97181.34
2019-05-02T13:04:22.947Z,97169.92
2019-05-02T13:06:53.103Z,97167.35
2019-05-02T13:09:23.416Z,97168.93
2019-05-02T13:12:13.175Z,97170.59
2019-05-02T13:14:42.382Z,97162.30
2019-05-02T13:17:12.067Z,97149.41
2019-05-02T13:19:55.400Z,97157.09
2019-05-02T13:22:14.148Z,97142.52
2019-05-02T13:24:46.889Z,97140.55
2019-05-02T13:27:17.099Z,97148.08
2019-05-02T13:29:47.639Z,97143.66
2019-05-02T13:32:24.699Z,97141.44
2019-05-02T13:35:02.082Z,97122.97
2019-05-02T13:37:31.804Z,97129.50
2019-05-02T13:40:12.074Z,97128.59
2019-05-02T13:42:41.879Z,97108.09
2019-05-02T13:45:22.086Z,97113.11
2019-05-02T13:47:51.900Z,97127.36
2019-05-02T13:50:22.312Z,97115.36
2019-05-02T13:52:57.370Z,97104.98
2019-05-02T13:55:27.412Z,97108.81
2019-05-02T13:57:56.757Z,97100.73
2019-05-02T14:00:31.929Z,97098.80
2019-05-02T14:03:02.818Z,97087.00
2019-05-02T14:05:32.247Z,97097.20
2019-05-02T14:08:18.463Z,97100.98
2019-05-02T14:11:07.477Z,97095.57
2019-05-02T14:13:37.293Z,97091.70
2019-05-02T14:16:06.792Z,97084.11
2019-05-02T14:18:36.139Z,97080.39
2019-05-02T14:21:05.476Z,97079.34
2019-05-02T14:23:34.808Z,97087.02
2019-05-02T14:26:04.223Z,97073.52
2019-05-02T14:28:36.318Z,97079.77
2019-05-02T14:31:04.583Z,97075.84
2019-05-02T14:33:35.583Z,97077.25
2019-05-02T14:36:04.916Z,97074.45
2019-05-02T14:38:34.254Z,97072.92
2019-05-02T14:41:05.231Z,97076.31
2019-05-02T14:43:53.336Z,97068.39
2019-05-02T14:46:28.786Z,97060.03
2019-05-02T14:48:55.558Z,97051.57
2019-05-02T14:51:27.797Z,97076.73
2019-05-02T14:53:57.514Z,97066.48
2019-05-02T14:56:32.899Z,97066.13
2019-05-02T14:59:02.731Z,97061.41
2019-05-02T15:01:32.294Z,97061.33
2019-05-02T15:04:04.102Z,97056.31
2019-05-02T15:06:33.837Z,97059.67
2019-05-02T15:09:04.673Z,97066.23
2019-05-02T15:11:34.965Z,97064.70
2019-05-02T15:14:04.593Z,97068.88
2019-05-02T15:16:42.192Z,97057.69
2019-05-02T15:19:05.139Z,97055.23
2019-05-02T15:21:47.049Z,97056.02
2019-05-02T15:24:14.369Z,97046.30
2019-05-02T15:26:43.713Z,97052.94
2019-05-02T15:29:19.776Z,97051.56
2019-05-02T15:31:48.189Z,97057.47
2019-05-02T15:34:22.722Z,97079.51
2019-05-02T15:36:52.709Z,97133.63
2019-05-02T15:41:53.204Z,97184.78
2019-05-02T15:44:23.378Z,97175.67
2019-05-02T15:46:53.585Z,97191.95
2019-05-02T15:49:22.930Z,97203.70
2019-05-02T15:51:52.497Z,97203.70
2019-05-02T15:54:22.725Z,97217.36
2019-05-02T15:57:00.633Z,97224.28
2019-05-02T15:59:37.728Z,97227.95
2019-05-02T16:02:07.072Z,97231.97
2019-05-02T16:04:41.763Z,97221.28
2019-05-02T16:07:12.134Z,97223.33
2019-05-02T16:09:42.155Z,97213.78
2019-05-02T16:12:12.264Z,97209.78
2019-05-02T16:14:42.443Z,97207.91
2019-05-02T16:17:12.647Z,97204.22
2019-05-02T16:19:43.778Z,97200.55
2019-05-02T16:22:14.759Z,97189.92
2019-05-02T16:24:48.710Z,97164.49
2019-05-02T16:27:16.490Z,97134.09
2019-05-02T16:29:46.291Z,97144.68
2019-05-02T16:32:17.413Z,97162.20
2019-05-02T16:34:54.191Z,97184.61
2019-05-02T16:37:22.659Z,97198.42
2019-05-02T16:39:52.408Z,97186.98
2019-05-02T16:42:22.749Z,97174.47
2019-05-02T16:44:54.832Z,97177.19
2019-05-02T16:47:23.391Z,97180.59
2019-05-02T16:49:56.290Z,97173.42
2019-05-02T16:52:23.782Z,97172.93
2019-05-02T16:54:53.419Z,97169.06
2019-05-02T16:57:23.871Z,97165.97
2019-05-02T17:00:00.976Z,97166.33
2019-05-02T17:02:24.328Z,97160.77
2019-05-02T17:04:54.602Z,97162.16
2019-05-02T17:07:26.064Z,97173.04
2019-05-02T17:09:59.754Z,97177.61
2019-05-02T17:12:31.761Z,97179.28
2019-05-02T17:15:19.123Z,97167.41
2019-05-02T17:17:48.472Z,97163.83
2019-05-02T17:20:18.043Z,97167.11
2019-05-02T17:22:50.198Z,97175.07
2019-05-02T17:25:18.425Z,97188.08
2019-05-02T17:27:47.792Z,97191.39
2019-05-02T17:30:17.921Z,97195.98
2019-05-02T17:32:47.268Z,97189.67
2019-05-02T17:35:18.467Z,97199.04
2019-05-02T17:37:49.110Z,97200.42
2019-05-02T17:40:24.433Z,97208.16
2019-05-02T17:42:57.148Z,97206.42
2019-05-02T17:45:24.050Z,97215.31
2019-05-02T17:47:53.321Z,97215.50
2019-05-02T17:50:33.508Z,97212.86
2019-05-02T17:53:04.486Z,97208.71
2019-05-02T17:55:40.235Z,97213.69
2019-05-02T17:58:12.528Z,97212.55
2019-05-02T18:00:38.621Z,97207.52
2019-05-02T18:03:08.025Z,97205.85
2019-05-02T18:05:37.370Z,97205.85
2019-05-02T18:08:10.891Z,97200.59
2019-05-02T18:10:37.883Z,97198.21
2019-05-02T18:13:07.234Z,97188.28
2019-05-02T18:15:36.569Z,97187.24
2019-05-02T18:18:07.850Z,97188.63
2019-05-02T18:20:41.520Z,97185.70
2019-05-02T18:23:08.051Z,97189.74
2019-05-02T18:25:37.399Z,97189.44
2019-05-02T18:28:06.845Z,97192.38
2019-05-02T18:30:36.188Z,97186.13
2019-05-02T18:33:07.337Z,97182.00
2019-05-02T18:35:37.479Z,97179.67
2019-05-02T18:38:07.981Z,97181.41
2019-05-02T18:40:37.391Z,97181.27
2019-05-02T18:43:06.963Z,97180.95
2019-05-02T18:45:36.305Z,97188.13
2019-05-02T18:48:06.917Z,97193.20
2019-05-02T18:50:44.302Z,97196.75
2019-05-02T18:53:11.322Z,97198.47
2019-05-02T18:55:42.190Z,97201.99
2019-05-02T18:58:12.826Z,97206.56
2019-05-02T19:00:42.414Z,97205.66
2019-05-02T19:03:16.838Z,97205.66
2019-05-02T19:05:43.421Z,97206.47
2019-05-02T19:08:13.002Z,97207.51
2019-05-02T19:11:01.388Z,97203.17
2019-05-02T19:13:13.583Z,97202.80
2019-05-02T19:15:46.561Z,97209.54
2019-05-02T19:18:18.236Z,97215.42
2019-05-02T19:20:57.471Z,97213.25
2019-05-02T19:23:25.111Z,97219.92
2019-05-02T19:25:54.518Z,97222.16
2019-05-02T19:28:33.600Z,97228.77
2019-05-02T19:31:05.151Z,97226.92
2019-05-02T19:33:31.835Z,97225.41
2019-05-02T19:36:02.790Z,97218.63
2019-05-02T19:38:34.767Z,97218.63
2019-05-02T19:41:08.697Z,97231.36
2019-05-02T19:43:35.070Z,97227.48
2019-05-02T19:46:04.997Z,97235.31
2019-05-02T19:48:36.874Z,97231.84
2019-05-02T19:51:10.592Z,97241.84
2019-05-02T19:53:36.862Z,97240.83
2019-05-02T19:56:06.834Z,97240.02
2019-05-02T19:58:41.453Z,97240.02
2019-05-02T20:01:07.939Z,97247.73
2019-05-02T20:03:37.278Z,97244.61
2019-05-02T20:06:06.787Z,97248.20
2019-05-02T20:08:36.177Z,97248.20
2019-05-02T20:11:05.669Z,97250.95
2019-05-02T20:13:35.015Z,97247.52
2019-05-02T20:16:09.042Z,97256.50
2019-05-02T20:18:43.870Z,97258.45
2019-05-02T20:21:27.189Z,97251.91
2019-05-02T20:23:51.486Z,97255.34
2019-05-02T20:26:22.120Z,97252.83
2019-05-02T20:28:52.794Z,97257.64
2019-05-02T20:31:22.661Z,97249.95
2019-05-02T20:33:52.131Z,97258.81
2019-05-02T20:36:22.822Z,97258.81
2019-05-02T20:38:52.655Z,97249.60
2019-05-02T20:41:22.470Z,97260.20
2019-05-02T20:43:51.863Z,97259.05
2019-05-02T20:46:21.913Z,97261.94
2019-05-02T20:48:52.581Z,97266.41
2019-05-02T20:51:22.778Z,97264.12
2019-05-02T20:53:52.741Z,97258.25
2019-05-02T20:56:23.128Z,97260.88
2019-05-02T20:58:53.502Z,97257.20
2019-05-02T21:01:22.857Z,97257.23
2019-05-02T21:03:52.342Z,97254.22
2019-05-02T21:06:37.061Z,97253.30
2019-05-02T21:08:59.464Z,97256.85
2019-05-02T21:11:29.194Z,97255.71
2019-05-02T21:13:58.555Z,97252.39
2019-05-02T21:16:28.222Z,97260.77
2019-05-02T21:18:57.627Z,97256.97
2019-05-02T21:21:27.120Z,97262.16
2019-05-02T21:23:56.464Z,97266.08
2019-05-02T21:26:25.823Z,97266.08
2019-05-02T21:28:55.161Z,97258.34
2019-05-02T21:31:24.517Z,97259.97
2019-05-02T21:33:53.853Z,97265.48
2019-05-02T21:36:23.208Z,97259.03
2019-05-02T21:38:52.560Z,97270.10
2019-05-02T21:41:22.327Z,97272.86
2019-05-02T21:43:51.948Z,97270.09
2019-05-02T21:46:22.333Z,97268.22
2019-05-02T21:48:52.630Z,97274.80
2019-05-02T21:51:26.666Z,97270.98
2019-05-02T21:54:02.858Z,97279.82
2019-05-02T21:56:48.942Z,97271.69
2019-05-02T21:59:18.286Z,97277.67
2019-05-02T22:01:53.075Z,97273.19
2019-05-02T22:04:22.712Z,97282.97
2019-05-02T22:06:52.702Z,97280.77
2019-05-02T22:09:23.055Z,97287.56
2019-05-02T22:11:52.750Z,97289.98
2019-05-02T22:14:22.440Z,97288.13
2019-05-02T22:16:52.975Z,97278.70
2019-05-02T22:19:22.538Z,97282.50
2019-05-02T22:21:52.457Z,97286.88
2019-05-02T22:24:42.252Z,97287.91
2019-05-02T22:27:18.361Z,97289.63
2019-05-02T22:29:47.720Z,97285.04
2019-05-02T22:32:17.135Z,97292.72
2019-05-02T22:35:26.392Z,97288.02
2019-05-02T22:38:14.842Z,97289.05
2019-05-02T22:43:39.321Z,97289.16
2019-05-02T22:48:49.197Z,97285.38
2019-05-02T22:51:18.534Z,97289.38
2019-05-02T22:53:47.892Z,97283.88
2019-05-02T22:56:17.241Z,97285.94
2019-05-02T22:58:46.577Z,97281.23
2019-05-02T23:01:15.930Z,97285.80
2019-05-02T23:03:45.273Z,97282.27
2019-05-02T23:06:14.627Z,97288.00
2019-05-02T23:08:44.035Z,97292.30
2019-05-02T23:11:13.731Z,97288.53
2019-05-02T23:13:43.064Z,97288.67
2019-05-02T23:16:12.421Z,97283.16
2019-05-02T23:18:42.612Z,97285.22
2019-05-02T23:21:22.392Z,97280.61
2019-05-02T23:23:52.348Z,97280.41
2019-05-02T23:29:22.841Z,97272.58
2019-05-02T23:31:52.203Z,97278.34
2019-05-02T23:34:23.534Z,97276.73
2019-05-02T23:36:57.717Z,97272.83
2019-05-02T23:39:27.055Z,97274.19
2019-05-02T23:41:56.401Z,97278.94
2019-05-02T23:44:26.042Z,97276.37
2019-05-02T23:46:55.461Z,97277.63
2019-05-02T23:49:24.810Z,97279.55
2019-05-02T23:52:13.475Z,97273.37
2019-05-02T23:54:50.021Z,97276.52
2019-05-02T23:57:23.102Z,97273.17
